Ilford, Canada
Current Conditions -  °F | °C
As of 7:00 AM on Sunday 21 Dec 2014 (Local Time) from CYGX Reporting Station
Light Snow Light Snow  
Wind Chill: -10°   Ceiling: 1000
Heat Index: -5°   Visibility: 10mi
Dew Point: -7°   Wind: 7mph
Humidity: 86%   Direction: 210°SSW
Pressure: 29.75"   Gusts: NA
Location:  56.04°N, 95.58°W
Report Text: CYGX 211300Z 21006KT 10SM -FZDZ -SN OVC010 M05/M07 A2975 RMK ST8 SLP087
Loading
Personal Weather Stations






























Interactive Weather Map New forecast layout! Learn more

10-Day Weather Forecast

Advertisements
Track Severe Weather on mobile